createdAt,value
2022-11-20T00:00:50.016Z,83.21
2022-11-20T00:01:49.939Z,83.11
2022-11-20T00:02:49.897Z,82.68
2022-11-20T00:03:49.899Z,81.88
2022-11-20T00:04:49.852Z,81.70
2022-11-20T00:05:49.886Z,82.76
2022-11-20T00:06:49.856Z,83.71
2022-11-20T00:07:49.864Z,84.34
2022-11-20T00:08:49.938Z,84.87
2022-11-20T00:09:49.833Z,84.45
2022-11-20T00:10:49.881Z,84.52
2022-11-20T00:11:49.874Z,84.41
2022-11-20T00:12:49.829Z,83.73
2022-11-20T00:13:49.860Z,83.56
2022-11-20T00:14:49.815Z,82.47
2022-11-20T00:15:49.815Z,81.88
2022-11-20T00:16:49.825Z,82.06
2022-11-20T00:17:49.775Z,83.26
2022-11-20T00:18:49.847Z,84.00
2022-11-20T00:19:49.840Z,85.09
2022-11-20T00:20:49.776Z,85.93
2022-11-20T00:21:49.777Z,86.57
2022-11-20T00:22:49.817Z,86.67
2022-11-20T00:23:49.783Z,87.52
2022-11-20T00:24:49.751Z,87.09
2022-11-20T00:25:49.757Z,87.09
2022-11-20T00:26:49.729Z,87.16
2022-11-20T00:27:49.748Z,87.27
2022-11-20T00:28:49.743Z,87.05
2022-11-20T00:29:49.804Z,86.53
2022-11-20T00:30:49.703Z,86.63
2022-11-20T00:31:49.727Z,86.74
2022-11-20T00:32:49.810Z,86.38
2022-11-20T00:33:49.765Z,86.80
2022-11-20T00:34:49.709Z,86.49
2022-11-20T00:35:49.702Z,86.45
2022-11-20T00:36:49.696Z,86.03
2022-11-20T00:37:49.688Z,85.92
2022-11-20T00:38:49.712Z,85.85
2022-11-20T00:39:49.704Z,85.50
2022-11-20T00:40:53.673Z,86.03
2022-11-20T00:41:51.671Z,85.92
2022-11-20T00:42:49.665Z,85.71
2022-11-20T00:43:49.645Z,85.04
2022-11-20T00:44:49.684Z,84.09
2022-11-20T00:45:49.709Z,84.47
2022-11-20T00:46:49.626Z,83.53
2022-11-20T00:47:49.661Z,83.04
2022-11-20T00:48:49.665Z,83.88
2022-11-20T00:49:49.641Z,83.46
2022-11-20T00:50:49.604Z,83.21
2022-11-20T00:51:49.613Z,83.00
2022-11-20T00:52:49.608Z,83.21
2022-11-20T00:53:49.629Z,83.21
2022-11-20T00:54:49.617Z,82.86
2022-11-20T00:55:49.588Z,82.43
2022-11-20T00:56:49.568Z,82.12
2022-11-20T00:57:49.567Z,81.49
2022-11-20T00:58:49.657Z,81.81
2022-11-20T00:59:49.568Z,81.18
2022-11-20T01:00:49.653Z,81.95
2022-11-20T01:01:49.639Z,83.33
2022-11-20T01:02:49.598Z,83.92
2022-11-20T01:03:49.535Z,84.02
2022-11-20T01:04:49.575Z,83.81
2022-11-20T01:05:49.574Z,84.34
2022-11-20T01:06:49.583Z,84.30
2022-11-20T01:07:49.594Z,83.56
2022-11-20T01:08:49.536Z,83.25
2022-11-20T01:09:49.522Z,83.25
2022-11-20T01:10:49.514Z,83.25
2022-11-20T01:11:49.569Z,82.72
2022-11-20T01:12:49.549Z,81.95
2022-11-20T01:13:49.493Z,81.63
2022-11-20T01:14:49.542Z,81.46
2022-11-20T01:15:49.503Z,81.42
2022-11-20T01:16:49.537Z,80.93
2022-11-20T01:17:49.456Z,81.21
2022-11-20T01:18:49.488Z,81.35
2022-11-20T01:19:49.459Z,80.72
2022-11-20T01:20:49.471Z,81.04
2022-11-20T01:21:49.513Z,81.56
2022-11-20T01:22:49.435Z,81.14
2022-11-20T01:23:49.444Z,81.24
2022-11-20T01:24:49.443Z,81.56
2022-11-20T01:25:49.449Z,81.56
2022-11-20T01:26:49.457Z,81.04
2022-11-20T01:27:49.407Z,80.65
2022-11-20T01:28:49.449Z,81.18
2022-11-20T01:29:49.468Z,81.63
2022-11-20T01:30:49.391Z,83.57
2022-11-20T01:31:49.423Z,84.20
2022-11-20T01:32:49.403Z,84.74
2022-11-20T01:33:49.412Z,84.10
2022-11-20T01:34:49.448Z,84.52
2022-11-20T01:35:49.370Z,84.31
2022-11-20T01:36:49.395Z,84.67
2022-11-20T01:37:49.379Z,85.97
2022-11-20T01:38:49.381Z,86.18
2022-11-20T01:39:49.374Z,86.88
2022-11-20T01:40:49.375Z,86.57
2022-11-20T01:41:49.345Z,86.40
2022-11-20T01:42:49.340Z,86.50
2022-11-20T01:43:49.347Z,86.67
2022-11-20T01:44:49.381Z,87.41
2022-11-20T01:45:49.413Z,87.20
2022-11-20T01:46:49.297Z,87.58
2022-11-20T01:47:49.292Z,87.48
2022-11-20T01:48:49.302Z,87.76
2022-11-20T01:49:49.296Z,87.08
2022-11-20T01:50:49.358Z,86.77
2022-11-20T01:51:50.263Z,86.62
2022-11-20T01:52:49.280Z,86.20
2022-11-20T01:53:49.259Z,85.67
2022-11-20T01:54:49.244Z,84.83
2022-11-20T01:55:49.289Z,84.23
2022-11-20T01:56:49.316Z,85.50
2022-11-20T01:57:49.298Z,85.04
2022-11-20T01:58:49.261Z,84.05
2022-11-20T01:59:49.230Z,84.58
2022-11-20T02:00:49.224Z,84.79
2022-11-20T02:01:49.254Z,83.91
2022-11-20T02:02:49.246Z,83.31
2022-11-20T02:03:49.220Z,83.63
2022-11-20T02:04:49.241Z,83.70
2022-11-20T02:05:49.249Z,83.00
2022-11-20T02:06:49.197Z,83.39
2022-11-20T02:07:49.235Z,85.11
2022-11-20T02:08:49.224Z,85.92
2022-11-20T02:09:49.281Z,85.61
2022-11-20T02:10:49.179Z,86.20
2022-11-20T02:11:49.173Z,86.20
2022-11-20T02:12:49.169Z,86.90
2022-11-20T02:13:49.184Z,86.16
2022-11-20T02:14:49.173Z,85.70
2022-11-20T02:15:49.146Z,85.07
2022-11-20T02:16:49.158Z,84.33
2022-11-20T02:17:49.128Z,84.01
2022-11-20T02:18:50.209Z,84.75
2022-11-20T02:19:49.137Z,85.38
2022-11-20T02:20:49.124Z,85.03
2022-11-20T02:21:49.148Z,85.24
2022-11-20T02:22:49.122Z,84.40
2022-11-20T02:23:49.096Z,84.19
2022-11-20T02:24:49.120Z,84.15
2022-11-20T02:25:49.100Z,84.57
2022-11-20T02:26:49.090Z,84.25
2022-11-20T02:27:49.092Z,83.62
2022-11-20T02:28:49.105Z,84.57
2022-11-20T02:29:49.258Z,84.25
2022-11-20T02:30:49.061Z,84.32
2022-11-20T02:31:49.066Z,84.01
2022-11-20T02:32:49.101Z,84.67
2022-11-20T02:33:49.115Z,84.19
2022-11-20T02:34:49.127Z,84.19
2022-11-20T02:35:49.045Z,84.78
2022-11-20T02:36:49.047Z,84.82
2022-11-20T02:37:49.055Z,85.45
2022-11-20T02:38:49.032Z,86.12
2022-11-20T02:39:49.068Z,87.21
2022-11-20T02:40:54.070Z,87.42
2022-11-20T02:41:51.032Z,87.88
2022-11-20T02:42:49.042Z,89.15
2022-11-20T02:43:48.999Z,89.47
2022-11-20T02:44:48.979Z,89.25
2022-11-20T02:45:49.999Z,89.25
2022-11-20T02:46:49.048Z,89.36
2022-11-20T02:47:49.013Z,89.53
2022-11-20T02:48:49.008Z,89.84
2022-11-20T02:49:48.974Z,89.07
2022-11-20T02:50:48.974Z,87.81
2022-11-20T02:51:48.975Z,87.91
2022-11-20T02:52:48.965Z,88.02
2022-11-20T02:53:48.959Z,87.95
2022-11-20T02:54:48.940Z,87.68
2022-11-20T02:55:48.975Z,88.73
2022-11-20T02:56:48.906Z,88.90
2022-11-20T02:57:48.977Z,89.32
2022-11-20T02:58:48.973Z,89.53
2022-11-20T02:59:48.928Z,88.75
2022-11-20T03:00:48.931Z,88.71
2022-11-20T03:01:48.899Z,87.81
2022-11-20T03:02:48.898Z,87.98
2022-11-20T03:03:48.912Z,87.45
2022-11-20T03:04:48.906Z,86.88
2022-11-20T03:05:48.864Z,86.04
2022-11-20T03:06:48.878Z,86.11
2022-11-20T03:07:48.875Z,86.00
2022-11-20T03:08:48.885Z,86.21
2022-11-20T03:09:48.907Z,85.58
2022-11-20T03:10:48.890Z,84.95
2022-11-20T03:11:48.850Z,84.78
2022-11-20T03:12:48.857Z,85.69
2022-11-20T03:13:48.834Z,85.16
2022-11-20T03:14:52.834Z,85.48
2022-11-20T03:15:49.826Z,84.74
2022-11-20T03:16:48.866Z,85.52
2022-11-20T03:17:48.806Z,85.69
2022-11-20T03:18:48.818Z,86.04
2022-11-20T03:19:48.821Z,86.53
2022-11-20T03:20:48.823Z,86.21
2022-11-20T03:21:48.790Z,86.32
2022-11-20T03:22:48.804Z,86.25
2022-11-20T03:23:48.782Z,86.61
2022-11-20T03:24:48.782Z,87.03
2022-11-20T03:25:48.807Z,87.45
2022-11-20T03:26:48.759Z,87.76
2022-11-20T03:27:48.776Z,87.66
2022-11-20T03:28:48.747Z,87.24
2022-11-20T03:29:48.744Z,87.81
2022-11-20T03:30:48.773Z,87.70
2022-11-20T03:31:48.753Z,88.82
2022-11-20T03:32:48.737Z,88.92
2022-11-20T03:33:48.721Z,88.92
2022-11-20T03:34:48.733Z,88.60
2022-11-20T03:35:48.738Z,88.99
2022-11-20T03:36:48.739Z,88.57
2022-11-20T03:37:48.701Z,88.57
2022-11-20T03:38:48.731Z,87.68
2022-11-20T03:39:48.685Z,87.93
2022-11-20T03:40:48.690Z,87.60
2022-11-20T03:41:48.699Z,88.65
2022-11-20T03:42:48.706Z,89.49
2022-11-20T03:43:48.657Z,89.45
2022-11-20T03:44:48.675Z,89.17
2022-11-20T03:45:48.655Z,89.07
2022-11-20T03:46:48.677Z,90.01
2022-11-20T03:47:48.651Z,90.01
2022-11-20T03:48:51.681Z,89.70
2022-11-20T03:49:49.680Z,90.29
2022-11-20T03:50:48.642Z,89.94
2022-11-20T03:51:48.703Z,89.69
2022-11-20T03:52:49.645Z,89.20
2022-11-20T03:53:48.629Z,90.08
2022-11-20T03:54:48.634Z,89.83
2022-11-20T03:55:48.595Z,90.25
2022-11-20T03:56:48.598Z,89.87
2022-11-20T03:57:48.597Z,90.40
2022-11-20T03:58:48.599Z,90.99
2022-11-20T03:59:48.586Z,91.41
2022-11-20T04:00:48.593Z,91.24
2022-11-20T04:01:49.661Z,91.41
2022-11-20T04:02:49.573Z,91.41
2022-11-20T04:03:48.567Z,91.78
2022-11-20T04:04:48.595Z,91.05
2022-11-20T04:05:48.578Z,90.00
2022-11-20T04:06:48.546Z,90.11
2022-11-20T04:07:48.544Z,88.99
2022-11-20T04:08:53.383Z,90.08
2022-11-20T04:09:50.527Z,90.92
2022-11-20T04:10:48.544Z,92.04
2022-11-20T04:11:48.544Z,91.51
2022-11-20T04:12:48.501Z,91.47
2022-11-20T04:13:48.494Z,90.04
2022-11-20T04:14:48.546Z,90.19
2022-11-20T04:15:48.572Z,91.20
2022-11-20T04:16:48.485Z,91.03
2022-11-20T04:17:48.499Z,92.02
2022-11-20T04:18:48.477Z,92.29
2022-11-20T04:19:48.509Z,91.87
2022-11-20T04:20:48.504Z,92.19
2022-11-20T04:21:48.541Z,92.08
2022-11-20T04:22:48.468Z,91.87
2022-11-20T04:23:48.451Z,92.86
2022-11-20T04:24:48.436Z,92.65
2022-11-20T04:25:48.441Z,92.12
2022-11-20T04:26:49.471Z,91.70
2022-11-20T04:27:48.448Z,92.19
2022-11-20T04:28:48.416Z,92.19
2022-11-20T04:29:48.422Z,92.29
2022-11-20T04:30:48.415Z,91.83
2022-11-20T04:31:48.449Z,91.41
2022-11-20T04:32:48.436Z,91.51
2022-11-20T04:33:48.431Z,91.47
2022-11-20T04:34:48.385Z,91.47
2022-11-20T04:35:48.397Z,91.74
2022-11-20T04:36:48.412Z,91.28
2022-11-20T04:37:48.519Z,90.66
2022-11-20T04:38:52.544Z,90.40
2022-11-20T04:39:49.391Z,90.30
2022-11-20T04:40:48.367Z,89.46
2022-11-20T04:41:48.398Z,89.87
2022-11-20T04:42:48.358Z,89.25
2022-11-20T04:43:48.392Z,89.04
2022-11-20T04:44:48.371Z,88.82
2022-11-20T04:45:48.334Z,88.82
2022-11-20T04:46:48.336Z,88.62
2022-11-20T04:47:48.333Z,89.04
2022-11-20T04:48:48.372Z,89.25
2022-11-20T04:49:48.366Z,89.04
2022-11-20T04:50:48.366Z,89.14
2022-11-20T04:51:48.324Z,89.14
2022-11-20T04:52:48.304Z,89.04
2022-11-20T04:53:48.323Z,88.76
2022-11-20T04:54:48.295Z,88.76
2022-11-20T04:55:48.280Z,89.32
2022-11-20T04:56:48.783Z,89.75
2022-11-20T04:57:49.272Z,90.42
2022-11-20T04:58:48.296Z,91.36
2022-11-20T04:59:48.285Z,91.26
2022-11-20T05:00:48.265Z,91.41
2022-11-20T05:01:48.289Z,91.41
2022-11-20T05:02:48.280Z,92.14
2022-11-20T05:03:48.258Z,91.68
2022-11-20T05:04:48.291Z,92.16
2022-11-20T05:05:48.283Z,91.85
2022-11-20T05:06:48.241Z,91.39
2022-11-20T05:07:48.216Z,91.77
2022-11-20T05:08:48.236Z,90.55
2022-11-20T05:09:48.225Z,89.98
2022-11-20T05:10:48.237Z,89.62
2022-11-20T05:11:51.468Z,89.62
2022-11-20T05:12:49.230Z,89.00
2022-11-20T05:13:48.171Z,88.68
2022-11-20T05:14:48.164Z,88.62
2022-11-20T05:15:48.191Z,88.89
2022-11-20T05:16:48.165Z,89.31
2022-11-20T05:17:48.180Z,88.89
2022-11-20T05:18:48.158Z,88.79
2022-11-20T05:19:52.880Z,89.17
2022-11-20T05:20:49.161Z,88.37
2022-11-20T05:21:48.169Z,89.04
2022-11-20T05:22:48.127Z,89.10
2022-11-20T05:23:48.230Z,89.21
2022-11-20T05:24:48.129Z,88.89
2022-11-20T05:25:48.132Z,89.21
2022-11-20T05:26:48.132Z,89.67
2022-11-20T05:27:48.143Z,89.56
2022-11-20T05:28:48.113Z,90.40
2022-11-20T05:29:48.162Z,90.15
2022-11-20T05:30:48.109Z,89.67
2022-11-20T05:31:48.109Z,89.67
2022-11-20T05:32:48.124Z,89.77
2022-11-20T05:33:48.083Z,89.98
2022-11-20T05:34:48.129Z,89.98
2022-11-20T05:35:48.087Z,89.77
2022-11-20T05:36:48.055Z,89.46
2022-11-20T05:37:48.061Z,89.87
2022-11-20T05:38:50.877Z,89.98
2022-11-20T05:39:49.101Z,89.56
2022-11-20T05:40:48.099Z,89.35
2022-11-20T05:41:48.027Z,89.42
2022-11-20T05:42:48.050Z,89.00
2022-11-20T05:43:48.044Z,89.35
2022-11-20T05:44:48.019Z,89.67
2022-11-20T05:45:48.004Z,89.98
2022-11-20T05:46:48.018Z,89.81
2022-11-20T05:47:48.002Z,89.86
2022-11-20T05:48:48.016Z,91.01
2022-11-20T05:49:48.024Z,91.33
2022-11-20T05:50:48.012Z,91.64
2022-11-20T05:51:47.987Z,91.81
2022-11-20T05:52:47.973Z,91.28
2022-11-20T05:53:48.783Z,91.28
2022-11-20T05:54:49.006Z,90.30
2022-11-20T05:55:47.952Z,90.51
2022-11-20T05:56:47.966Z,90.40
2022-11-20T05:57:47.946Z,90.09
2022-11-20T05:58:47.968Z,89.46
2022-11-20T05:59:47.959Z,89.46
2022-11-20T06:00:48.074Z,89.62
2022-11-20T06:01:47.978Z,89.84
2022-11-20T06:02:47.988Z,89.27
2022-11-20T06:03:47.985Z,89.27
2022-11-20T06:04:47.898Z,88.64
2022-11-20T06:05:47.930Z,88.54
2022-11-20T06:06:47.929Z,87.38
2022-11-20T06:07:47.895Z,88.01
2022-11-20T06:08:47.907Z,87.28
2022-11-20T06:09:47.874Z,88.12
2022-11-20T06:10:47.867Z,87.28
2022-11-20T06:11:47.951Z,87.45
2022-11-20T06:12:47.906Z,87.34
2022-11-20T06:13:47.870Z,87.70
2022-11-20T06:14:47.989Z,87.49
2022-11-20T06:15:47.898Z,87.42
2022-11-20T06:16:47.864Z,89.14
2022-11-20T06:17:47.835Z,89.25
2022-11-20T06:18:47.852Z,89.87
2022-11-20T06:19:47.837Z,89.87
2022-11-20T06:20:47.836Z,89.73
2022-11-20T06:21:47.809Z,89.67
2022-11-20T06:22:47.852Z,89.77
2022-11-20T06:23:47.847Z,89.50
2022-11-20T06:24:47.810Z,90.19
2022-11-20T06:25:47.796Z,90.30
2022-11-20T06:26:47.797Z,89.98
2022-11-20T06:27:47.818Z,89.84
2022-11-20T06:28:47.813Z,89.73
2022-11-20T06:29:47.774Z,89.73
2022-11-20T06:30:47.806Z,89.52
2022-11-20T06:31:47.770Z,88.75
2022-11-20T06:32:47.765Z,89.10
2022-11-20T06:33:47.812Z,88.79
2022-11-20T06:34:47.771Z,88.57
2022-11-20T06:35:47.767Z,89.10
2022-11-20T06:36:47.732Z,89.56
2022-11-20T06:37:47.742Z,89.56
2022-11-20T06:38:47.740Z,89.35
2022-11-20T06:39:47.725Z,89.77
2022-11-20T06:40:47.775Z,90.66
2022-11-20T06:41:47.722Z,90.55
2022-11-20T06:42:47.733Z,91.39
2022-11-20T06:43:47.700Z,91.18
2022-11-20T06:44:47.763Z,91.28
2022-11-20T06:45:47.692Z,91.07
2022-11-20T06:46:47.745Z,91.24
2022-11-20T06:47:47.696Z,90.92
2022-11-20T06:48:47.686Z,91.35
2022-11-20T06:49:47.724Z,91.62
2022-11-20T06:50:47.676Z,91.62
2022-11-20T06:51:47.697Z,91.41
2022-11-20T06:52:47.641Z,91.58
2022-11-20T06:53:47.679Z,91.16
2022-11-20T06:54:47.633Z,90.59
2022-11-20T06:55:47.631Z,89.97
2022-11-20T06:56:47.659Z,90.28
2022-11-20T06:57:49.775Z,89.44
2022-11-20T06:58:48.622Z,89.34
2022-11-20T06:59:47.677Z,89.34
2022-11-20T07:00:47.716Z,89.75
2022-11-20T07:01:47.680Z,89.65
2022-11-20T07:02:47.611Z,89.65
2022-11-20T07:03:52.833Z,89.34
2022-11-20T07:04:49.622Z,88.39
2022-11-20T07:05:47.602Z,88.60
2022-11-20T07:06:47.629Z,88.64
2022-11-20T07:07:47.577Z,89.42
2022-11-20T07:08:47.600Z,89.31
2022-11-20T07:09:47.586Z,89.94
2022-11-20T07:10:47.575Z,90.78
2022-11-20T07:11:47.588Z,90.89
2022-11-20T07:12:47.587Z,91.09
2022-11-20T07:13:47.570Z,91.30
2022-11-20T07:14:48.543Z,91.37
2022-11-20T07:15:47.549Z,90.84
2022-11-20T07:16:47.552Z,90.42
2022-11-20T07:17:47.543Z,90.00
2022-11-20T07:18:50.803Z,90.25
2022-11-20T07:19:48.558Z,90.66
2022-11-20T07:20:47.514Z,91.85
2022-11-20T07:21:47.503Z,92.69
2022-11-20T07:22:47.497Z,93.11
2022-11-20T07:23:47.485Z,93.85
2022-11-20T07:24:47.530Z,94.17
2022-11-20T07:25:47.503Z,94.37
2022-11-20T07:26:47.491Z,94.37
2022-11-20T07:27:47.470Z,94.43
2022-11-20T07:28:47.512Z,94.43
2022-11-20T07:29:47.504Z,94.12
2022-11-20T07:30:47.464Z,94.23
2022-11-20T07:31:47.538Z,93.80
2022-11-20T07:32:47.445Z,93.55
2022-11-20T07:33:47.488Z,93.34
2022-11-20T07:34:47.461Z,92.92
2022-11-20T07:35:47.428Z,92.57
2022-11-20T07:36:47.436Z,93.09
2022-11-20T07:37:47.450Z,92.35
2022-11-20T07:38:47.424Z,91.66
2022-11-20T07:39:47.424Z,92.29
2022-11-20T07:40:47.401Z,92.96
2022-11-20T07:41:47.431Z,93.53
2022-11-20T07:42:47.413Z,94.17
2022-11-20T07:43:47.435Z,94.48
2022-11-20T07:44:47.381Z,94.84
2022-11-20T07:45:47.393Z,95.32
2022-11-20T07:46:47.381Z,95.53
2022-11-20T07:47:47.382Z,95.59
2022-11-20T07:48:47.421Z,95.17
2022-11-20T07:49:47.350Z,95.28
2022-11-20T07:50:47.351Z,94.81
2022-11-20T07:51:51.617Z,94.92
2022-11-20T07:52:48.347Z,95.02
2022-11-20T07:53:47.359Z,94.87
2022-11-20T07:54:47.378Z,94.67
2022-11-20T07:55:47.348Z,94.35
2022-11-20T07:56:47.348Z,93.97
2022-11-20T07:57:47.303Z,94.08
2022-11-20T07:58:47.344Z,94.23
2022-11-20T07:59:47.313Z,94.43
2022-11-20T08:00:47.307Z,94.75
2022-11-20T08:01:47.308Z,94.96
2022-11-20T08:02:47.295Z,94.71
2022-11-20T08:03:47.323Z,94.81
2022-11-20T08:04:47.304Z,94.71
2022-11-20T08:05:47.269Z,94.18
2022-11-20T08:06:47.259Z,94.18
2022-11-20T08:07:47.299Z,93.97
2022-11-20T08:08:47.261Z,94.33
2022-11-20T08:09:47.331Z,94.96
2022-11-20T08:10:47.268Z,95.00
2022-11-20T08:11:47.244Z,95.53
2022-11-20T08:12:47.248Z,96.01
2022-11-20T08:13:47.243Z,95.48
2022-11-20T08:14:47.242Z,95.48
2022-11-20T08:15:47.253Z,95.34
2022-11-20T08:16:47.225Z,95.34
2022-11-20T08:18:08.301Z,94.92
2022-11-20T08:18:49.236Z,94.98
2022-11-20T08:19:47.291Z,94.87
2022-11-20T08:20:47.198Z,94.20
2022-11-20T08:21:47.234Z,94.16
2022-11-20T08:22:47.189Z,94.06
2022-11-20T08:23:47.185Z,93.84
2022-11-20T08:24:47.190Z,93.63
2022-11-20T08:25:47.168Z,93.01
2022-11-20T08:26:47.183Z,92.00
2022-11-20T08:27:47.166Z,93.30
2022-11-20T08:28:47.168Z,93.30
2022-11-20T08:29:47.188Z,93.40
2022-11-20T08:30:47.131Z,93.78
2022-11-20T08:31:48.171Z,93.72
2022-11-20T08:32:47.136Z,94.04
2022-11-20T08:33:47.142Z,94.10
2022-11-20T08:34:47.146Z,93.84
2022-11-20T08:35:47.130Z,93.63
2022-11-20T08:36:47.116Z,93.74
2022-11-20T08:37:47.095Z,93.63
2022-11-20T08:38:47.131Z,93.17
2022-11-20T08:39:47.160Z,93.38
2022-11-20T08:40:47.171Z,93.27
2022-11-20T08:41:47.106Z,92.08
2022-11-20T08:42:47.081Z,92.02
2022-11-20T08:43:47.109Z,91.28
2022-11-20T08:44:47.238Z,90.97
2022-11-20T08:45:47.066Z,91.14
2022-11-20T08:46:47.052Z,91.03
2022-11-20T08:47:47.086Z,90.51
2022-11-20T08:48:47.061Z,91.24
2022-11-20T08:49:47.038Z,90.20
2022-11-20T08:50:47.103Z,89.42
2022-11-20T08:51:47.049Z,89.57
2022-11-20T08:52:47.072Z,89.53
2022-11-20T08:53:47.051Z,89.53
2022-11-20T08:54:47.053Z,89.53
2022-11-20T08:55:47.009Z,89.48
2022-11-20T08:56:47.013Z,89.11
2022-11-20T08:57:50.803Z,89.32
2022-11-20T09:00:05.472Z,89.22
2022-11-20T09:00:49.044Z,89.11
2022-11-20T09:01:47.002Z,89.53
2022-11-20T09:02:47.020Z,89.73
2022-11-20T09:03:46.980Z,89.00
2022-11-20T09:04:47.062Z,88.69
2022-11-20T09:05:47.000Z,88.62
2022-11-20T09:06:46.961Z,88.84
2022-11-20T09:07:46.988Z,88.94
2022-11-20T09:08:46.957Z,89.42
2022-11-20T09:09:58.734Z,89.15
2022-11-20T09:10:47.935Z,89.57
2022-11-20T09:11:46.977Z,90.09
2022-11-20T09:12:46.923Z,89.88
2022-11-20T09:13:46.921Z,89.84
2022-11-20T09:14:50.862Z,89.78
2022-11-20T09:15:48.911Z,89.84
2022-11-20T09:16:46.926Z,89.63
2022-11-20T09:17:46.875Z,90.03
2022-11-20T09:18:46.915Z,90.59
2022-11-20T09:19:47.221Z,91.89
2022-11-20T09:20:46.914Z,92.94
2022-11-20T09:21:46.865Z,93.26
2022-11-20T09:22:46.918Z,93.57
2022-11-20T09:23:46.885Z,93.95
2022-11-20T09:24:46.885Z,94.31
2022-11-20T09:25:46.864Z,94.16
2022-11-20T09:26:47.353Z,94.26
2022-11-20T09:27:47.025Z,94.47
2022-11-20T09:28:46.925Z,94.32
2022-11-20T09:29:46.835Z,93.91
2022-11-20T09:30:46.859Z,94.06
2022-11-20T09:31:46.842Z,94.45
2022-11-20T09:32:46.861Z,95.46
2022-11-20T09:33:47.774Z,95.50
2022-11-20T09:34:46.827Z,95.78
2022-11-20T09:35:46.791Z,95.46
2022-11-20T09:36:46.785Z,95.36
2022-11-20T09:37:46.823Z,95.84
2022-11-20T09:38:46.818Z,95.73
2022-11-20T09:39:46.775Z,95.42
2022-11-20T09:40:46.792Z,94.85
2022-11-20T09:41:46.785Z,94.68
2022-11-20T09:42:46.805Z,94.89
2022-11-20T09:43:46.794Z,95.42
2022-11-20T09:44:46.738Z,95.62
2022-11-20T09:45:46.761Z,95.73
2022-11-20T09:46:46.738Z,94.89
2022-11-20T09:47:46.748Z,94.79
2022-11-20T09:48:46.727Z,94.79
2022-11-20T09:49:46.760Z,94.26
2022-11-20T09:50:46.720Z,94.68
2022-11-20T09:51:46.713Z,95.10
2022-11-20T09:52:46.771Z,95.21
2022-11-20T09:53:46.698Z,95.00
2022-11-20T09:54:46.774Z,95.00
2022-11-20T09:55:46.688Z,95.10
2022-11-20T09:56:46.788Z,95.36
2022-11-20T09:57:46.678Z,95.42
2022-11-20T09:58:46.679Z,95.62
2022-11-20T09:59:46.691Z,95.73
2022-11-20T10:00:46.704Z,95.73
2022-11-20T10:01:46.668Z,95.67
2022-11-20T10:02:46.674Z,95.67
2022-11-20T10:03:46.679Z,95.94
2022-11-20T10:04:47.657Z,95.84
2022-11-20T10:05:46.701Z,96.30
2022-11-20T10:06:51.983Z,96.25
2022-11-20T10:07:47.726Z,95.62
2022-11-20T10:08:46.628Z,95.25
2022-11-20T10:09:46.665Z,95.52
2022-11-20T10:10:52.274Z,95.84
2022-11-20T10:11:48.655Z,96.25
2022-11-20T10:12:46.628Z,95.79
2022-11-20T10:13:46.600Z,96.06
2022-11-20T10:14:46.603Z,95.54
2022-11-20T10:15:46.582Z,94.70
2022-11-20T10:16:46.579Z,94.12
2022-11-20T10:17:46.642Z,94.32
2022-11-20T10:18:46.629Z,94.28
2022-11-20T10:19:46.572Z,94.28
2022-11-20T10:20:46.567Z,93.65
2022-11-20T10:21:46.553Z,93.55
2022-11-20T10:22:46.552Z,93.91
2022-11-20T10:23:46.639Z,94.43
2022-11-20T10:24:46.575Z,94.60
2022-11-20T10:25:46.529Z,94.91
2022-11-20T10:26:46.510Z,94.70
2022-11-20T10:27:46.645Z,94.76
2022-11-20T10:28:53.971Z,94.82
2022-11-20T10:29:48.530Z,94.62
2022-11-20T10:30:46.510Z,94.57
2022-11-20T10:31:46.490Z,93.88
2022-11-20T10:32:46.521Z,92.58
2022-11-20T10:34:10.413Z,91.43
2022-11-20T10:34:48.507Z,91.22
2022-11-20T10:35:46.466Z,91.02
2022-11-20T10:36:46.471Z,91.02
2022-11-20T10:37:46.458Z,91.54
2022-11-20T10:38:46.491Z,91.27
2022-11-20T10:39:46.468Z,91.83
2022-11-20T10:40:46.463Z,91.94
2022-11-20T10:41:46.441Z,92.82
2022-11-20T10:42:46.534Z,93.34
2022-11-20T10:43:46.438Z,93.97
2022-11-20T10:44:46.430Z,94.81
2022-11-20T10:45:46.451Z,94.49
2022-11-20T10:46:46.435Z,94.66
2022-11-20T10:47:46.425Z,94.28
2022-11-20T10:48:46.414Z,94.38
2022-11-20T10:49:46.392Z,94.70
2022-11-20T10:50:46.412Z,94.74
2022-11-20T10:51:46.434Z,95.37
2022-11-20T10:52:46.435Z,95.17
2022-11-20T10:53:46.389Z,95.27
2022-11-20T10:54:46.431Z,95.54
2022-11-20T10:55:46.378Z,95.86
2022-11-20T10:56:49.904Z,95.12
2022-11-20T10:57:47.390Z,95.86
2022-11-20T10:58:46.351Z,95.12
2022-11-20T10:59:46.354Z,94.95
2022-11-20T11:00:46.385Z,95.00
2022-11-20T11:01:46.331Z,95.62
2022-11-20T11:02:46.347Z,96.11
2022-11-20T11:03:46.316Z,96.80
2022-11-20T11:04:46.319Z,96.37
2022-11-20T11:05:46.351Z,95.27
2022-11-20T11:06:46.300Z,95.86
2022-11-20T11:07:46.291Z,96.00
2022-11-20T11:08:46.284Z,95.86
2022-11-20T11:09:46.276Z,96.17
2022-11-20T11:10:46.323Z,95.64
2022-11-20T11:11:46.271Z,95.75
2022-11-20T11:12:46.319Z,95.23
2022-11-20T11:13:46.280Z,95.75
2022-11-20T11:14:46.269Z,95.50
2022-11-20T11:15:46.262Z,95.01
2022-11-20T11:16:46.264Z,94.91
2022-11-20T11:17:46.287Z,95.54
2022-11-20T11:18:46.273Z,95.64
2022-11-20T11:19:46.265Z,95.54
2022-11-20T11:20:47.223Z,95.29
2022-11-20T11:21:49.790Z,94.91
2022-11-20T11:22:47.201Z,95.23
2022-11-20T11:23:46.206Z,95.23
2022-11-20T11:24:46.319Z,95.64
2022-11-20T11:25:46.210Z,95.23
2022-11-20T11:26:46.218Z,95.70
2022-11-20T11:27:46.224Z,95.60
2022-11-20T11:28:46.178Z,94.91
2022-11-20T11:29:46.188Z,95.33
2022-11-20T11:30:46.184Z,95.43
2022-11-20T11:31:46.242Z,95.43
2022-11-20T11:32:46.194Z,95.54
2022-11-20T11:33:46.209Z,95.75
2022-11-20T11:34:46.159Z,95.33
2022-11-20T11:35:49.971Z,95.86
2022-11-20T11:36:48.151Z,95.64
2022-11-20T11:37:46.173Z,96.17
2022-11-20T11:38:46.157Z,95.96
2022-11-20T11:39:47.553Z,96.06
2022-11-20T11:40:46.145Z,96.44
2022-11-20T11:41:46.117Z,96.50
2022-11-20T11:42:46.110Z,96.12
2022-11-20T11:43:46.090Z,95.98
2022-11-20T11:44:46.111Z,95.14
2022-11-20T11:45:46.136Z,94.56
2022-11-20T11:46:46.089Z,94.56
2022-11-20T11:47:46.120Z,94.76
2022-11-20T11:48:50.593Z,94.76
2022-11-20T11:49:47.075Z,94.82
2022-11-20T11:50:46.071Z,94.99
2022-11-20T11:51:46.088Z,94.68
2022-11-20T11:52:46.065Z,94.78
2022-11-20T11:53:46.076Z,94.11
2022-11-20T11:54:46.100Z,93.80
2022-11-20T11:55:46.042Z,93.33
2022-11-20T11:56:46.045Z,92.60
2022-11-20T11:57:46.062Z,92.50
2022-11-20T11:58:46.016Z,91.46
2022-11-20T11:59:47.087Z,91.35
2022-11-20T12:00:46.007Z,90.77
2022-11-20T12:01:46.097Z,91.39
2022-11-20T12:02:46.017Z,92.48
2022-11-20T12:03:46.008Z,93.99
2022-11-20T12:04:45.987Z,94.40
2022-11-20T12:05:46.019Z,95.03
2022-11-20T12:06:45.978Z,94.89
2022-11-20T12:07:47.397Z,94.99
2022-11-20T12:08:47.025Z,94.64
2022-11-20T12:09:46.004Z,93.96
2022-11-20T12:10:45.975Z,93.27
2022-11-20T12:11:45.941Z,93.27
2022-11-20T12:12:45.953Z,92.60
2022-11-20T12:13:45.921Z,92.60
2022-11-20T12:14:45.932Z,92.77
2022-11-20T12:15:45.943Z,92.77
2022-11-20T12:16:45.918Z,92.21
2022-11-20T12:17:45.907Z,92.52
2022-11-20T12:18:45.907Z,91.79
2022-11-20T12:19:45.890Z,91.37
2022-11-20T12:20:45.899Z,91.58
2022-11-20T12:21:45.877Z,91.27
2022-11-20T12:22:45.881Z,90.95
2022-11-20T12:23:45.880Z,91.47
2022-11-20T12:24:45.869Z,90.91
2022-11-20T12:25:45.887Z,90.91
2022-11-20T12:26:45.857Z,90.08
2022-11-20T12:27:45.868Z,90.77
2022-11-20T12:28:45.847Z,91.12
2022-11-20T12:29:45.837Z,89.59
2022-11-20T12:30:45.835Z,89.91
2022-11-20T12:31:45.846Z,90.33
2022-11-20T12:32:45.883Z,91.06
2022-11-20T12:33:45.842Z,90.68
2022-11-20T12:34:45.821Z,91.66
2022-11-20T12:35:46.839Z,92.54
2022-11-20T12:36:45.926Z,93.27
2022-11-20T12:37:45.880Z,93.44
2022-11-20T12:38:45.775Z,92.90
2022-11-20T12:39:45.781Z,93.95
2022-11-20T12:40:45.972Z,94.74
2022-11-20T12:41:45.823Z,94.46
2022-11-20T12:42:45.820Z,94.46
2022-11-20T12:43:45.790Z,95.09
2022-11-20T12:44:45.787Z,94.89
2022-11-20T12:45:45.754Z,95.41
2022-11-20T12:46:45.751Z,95.93
2022-11-20T12:47:45.759Z,95.47
2022-11-20T12:48:46.655Z,95.32
2022-11-20T12:49:46.742Z,94.90
2022-11-20T12:51:08.080Z,94.80
2022-11-20T12:51:47.714Z,94.17
2022-11-20T12:52:45.771Z,94.42
2022-11-20T12:53:45.698Z,94.95